createdAt,value
2023-05-15T00:00:56.456Z,12.94
2023-05-15T00:03:44.219Z,12.94
2023-05-15T00:06:33.260Z,12.88
2023-05-15T00:09:21.838Z,12.81
2023-05-15T00:12:09.742Z,12.81
2023-05-15T00:14:58.144Z,12.81
2023-05-15T00:17:48.038Z,12.81
2023-05-15T00:20:36.763Z,12.75
2023-05-15T00:23:26.375Z,12.75
2023-05-15T00:26:16.303Z,12.69
2023-05-15T00:29:04.756Z,12.63
2023-05-15T00:31:53.684Z,12.56
2023-05-15T00:34:42.899Z,12.44
2023-05-15T00:37:33.354Z,12.38
2023-05-15T00:40:25.614Z,12.38
2023-05-15T00:43:17.240Z,12.31
2023-05-15T00:46:10.393Z,12.31
2023-05-15T00:49:01.819Z,12.25
2023-05-15T00:51:53.045Z,12.19
2023-05-15T00:54:42.815Z,12.13
2023-05-15T00:57:35.009Z,12.06
2023-05-15T01:00:23.585Z,12.06
2023-05-15T01:03:12.030Z,12.06
2023-05-15T01:06:00.240Z,12.06
2023-05-15T01:08:49.914Z,12.00
2023-05-15T01:11:39.809Z,12.00
2023-05-15T01:14:27.574Z,12.06
2023-05-15T01:17:15.831Z,12.06
2023-05-15T01:20:09.466Z,12.06
2023-05-15T01:24:17.603Z,12.06
2023-05-15T01:27:21.534Z,12.06
2023-05-15T01:30:35.387Z,12.06
2023-05-15T01:33:39.125Z,12.06
2023-05-15T01:36:43.082Z,12.00
2023-05-15T01:39:34.812Z,12.00
2023-05-15T01:42:31.134Z,11.94
2023-05-15T01:45:24.467Z,12.00
2023-05-15T01:48:15.667Z,11.94
2023-05-15T01:51:08.527Z,12.00
2023-05-15T01:53:59.492Z,11.94
2023-05-15T01:56:48.032Z,11.94
2023-05-15T01:59:37.773Z,11.94
2023-05-15T02:02:28.439Z,11.88
2023-05-15T02:05:19.483Z,11.88
2023-05-15T02:08:09.662Z,11.88
2023-05-15T02:11:02.863Z,11.81
2023-05-15T02:13:52.557Z,11.81
2023-05-15T02:16:41.429Z,11.81
2023-05-15T02:19:29.896Z,11.81
2023-05-15T02:22:18.467Z,11.81
2023-05-15T02:25:06.629Z,11.81
2023-05-15T02:28:00.971Z,11.81
2023-05-15T02:31:08.392Z,11.81
2023-05-15T02:34:28.647Z,11.88
2023-05-15T02:37:24.809Z,11.94
2023-05-15T02:40:14.171Z,12.00
2023-05-15T02:43:05.617Z,12.06
2023-05-15T02:45:56.358Z,12.06
2023-05-15T02:48:44.886Z,12.06
2023-05-15T02:51:35.206Z,12.00
2023-05-15T02:54:23.652Z,12.06
2023-05-15T02:57:12.884Z,12.06
2023-05-15T03:00:01.123Z,12.13
2023-05-15T03:02:50.339Z,12.19
2023-05-15T03:05:39.245Z,12.19
2023-05-15T03:08:28.233Z,12.19
2023-05-15T03:11:19.529Z,12.25
2023-05-15T03:14:07.566Z,12.25
2023-05-15T03:16:55.850Z,12.25
2023-05-15T03:19:43.959Z,12.25
2023-05-15T03:22:32.485Z,12.31
2023-05-15T03:25:21.396Z,12.38
2023-05-15T03:28:09.607Z,12.44
2023-05-15T03:30:58.502Z,12.50
2023-05-15T03:33:50.064Z,12.56
2023-05-15T03:36:39.370Z,12.63
2023-05-15T03:39:28.173Z,12.63
2023-05-15T03:42:23.426Z,12.69
2023-05-15T03:45:11.525Z,12.69
2023-05-15T03:48:00.404Z,12.69
2023-05-15T03:50:49.197Z,12.69
2023-05-15T03:53:39.705Z,12.69
2023-05-15T03:56:28.286Z,12.69
2023-05-15T03:59:16.704Z,12.69
2023-05-15T04:02:05.772Z,12.75
2023-05-15T04:04:54.072Z,12.81
2023-05-15T04:07:44.116Z,12.88
2023-05-15T04:10:33.989Z,12.94
2023-05-15T04:13:23.469Z,13.00
2023-05-15T04:16:12.048Z,13.13
2023-05-15T04:19:00.655Z,13.19
2023-05-15T04:21:50.299Z,13.31
2023-05-15T04:24:38.710Z,13.44
2023-05-15T04:27:27.323Z,13.63
2023-05-15T04:30:15.727Z,13.69
2023-05-15T04:33:04.349Z,13.81
2023-05-15T04:35:53.423Z,13.88
2023-05-15T04:38:41.623Z,14.00
2023-05-15T04:41:30.412Z,14.13
2023-05-15T04:44:18.806Z,14.31
2023-05-15T04:47:09.146Z,14.44
2023-05-15T04:50:15.316Z,14.63
2023-05-15T04:53:05.883Z,14.69
2023-05-15T04:55:56.231Z,14.81
2023-05-15T04:58:57.959Z,15.00
2023-05-15T05:01:46.530Z,15.19
2023-05-15T05:04:35.092Z,15.44
2023-05-15T05:07:24.022Z,15.69
2023-05-15T05:10:12.607Z,15.88
2023-05-15T05:13:01.138Z,15.94
2023-05-15T05:15:49.060Z,15.94
2023-05-15T05:18:37.778Z,16.00
2023-05-15T05:21:26.374Z,16.19
2023-05-15T05:24:14.491Z,16.31
2023-05-15T05:27:03.042Z,16.44
2023-05-15T05:29:52.689Z,16.50
2023-05-15T05:32:41.182Z,16.56
2023-05-15T05:35:29.721Z,16.56
2023-05-15T05:38:17.756Z,16.69
2023-05-15T05:41:05.977Z,16.63
2023-05-15T05:43:53.998Z,16.69
2023-05-15T05:46:42.943Z,16.44
2023-05-15T05:49:31.091Z,16.19
2023-05-15T05:52:20.282Z,16.06
2023-05-15T05:55:09.775Z,16.00
2023-05-15T05:57:58.772Z,15.88
2023-05-15T06:00:47.672Z,15.94
2023-05-15T06:03:35.807Z,16.13
2023-05-15T06:06:24.667Z,16.13
2023-05-15T06:09:12.871Z,16.00
2023-05-15T06:12:01.023Z,15.75
2023-05-15T06:14:49.506Z,15.81
2023-05-15T06:17:38.323Z,16.00
2023-05-15T06:20:28.671Z,16.00
2023-05-15T06:23:16.794Z,16.00
2023-05-15T06:26:06.024Z,15.88
2023-05-15T06:28:53.832Z,15.81
2023-05-15T06:31:41.973Z,15.69
2023-05-15T06:34:30.478Z,15.50
2023-05-15T06:37:18.522Z,15.75
2023-05-15T06:40:09.329Z,15.94
2023-05-15T06:42:59.001Z,16.13
2023-05-15T06:45:47.121Z,16.44
2023-05-15T06:48:36.314Z,16.63
2023-05-15T06:51:24.613Z,16.75
2023-05-15T06:54:12.954Z,17.00
2023-05-15T06:57:01.286Z,17.06
2023-05-15T06:59:51.249Z,17.06
2023-05-15T07:02:39.147Z,17.00
2023-05-15T07:05:27.970Z,16.88
2023-05-15T07:08:16.588Z,16.81
2023-05-15T07:11:05.267Z,16.75
2023-05-15T07:13:53.726Z,16.94
2023-05-15T07:16:41.788Z,16.94
2023-05-15T07:19:31.631Z,16.94
2023-05-15T07:22:20.192Z,17.19
2023-05-15T07:25:09.193Z,17.25
2023-05-15T07:27:57.573Z,17.25
2023-05-15T07:30:46.092Z,17.19
2023-05-15T07:33:34.104Z,17.00
2023-05-15T07:36:22.392Z,17.06
2023-05-15T07:39:10.847Z,17.19
2023-05-15T07:41:59.052Z,17.63
2023-05-15T07:44:49.470Z,18.06
2023-05-15T07:47:38.299Z,18.75
2023-05-15T07:50:26.617Z,19.06
2023-05-15T07:53:17.163Z,18.69
2023-05-15T07:56:05.859Z,18.38
2023-05-15T07:58:55.655Z,18.31
2023-05-15T08:01:43.661Z,18.56
2023-05-15T08:04:32.008Z,19.06
2023-05-15T08:07:26.146Z,19.31
2023-05-15T08:10:15.317Z,19.44
2023-05-15T08:13:03.502Z,19.50
2023-05-15T08:15:51.285Z,19.75
2023-05-15T08:18:39.730Z,19.75
2023-05-15T08:21:28.345Z,19.81
2023-05-15T08:24:16.561Z,19.81
2023-05-15T08:27:06.779Z,19.44
2023-05-15T08:29:55.505Z,19.50
2023-05-15T08:32:48.998Z,19.63
2023-05-15T08:35:37.231Z,20.00
2023-05-15T08:38:25.948Z,20.19
2023-05-15T08:41:39.924Z,20.31
2023-05-15T08:44:30.649Z,20.00
2023-05-15T08:47:20.846Z,19.94
2023-05-15T08:50:17.297Z,19.81
2023-05-15T08:53:06.597Z,19.44
2023-05-15T08:55:54.987Z,19.88
2023-05-15T08:58:43.702Z,20.19
2023-05-15T09:01:32.891Z,20.25
2023-05-15T09:04:21.153Z,19.56
2023-05-15T09:07:11.734Z,19.13
2023-05-15T09:10:02.440Z,18.88
2023-05-15T09:12:52.864Z,19.06
2023-05-15T09:15:41.657Z,19.38
2023-05-15T09:18:32.713Z,19.00
2023-05-15T09:21:29.823Z,18.81
2023-05-15T09:24:28.351Z,18.69
2023-05-15T09:27:16.597Z,18.44
2023-05-15T09:30:11.387Z,19.31
2023-05-15T09:33:03.663Z,19.81
2023-05-15T09:35:53.201Z,19.69
2023-05-15T09:38:43.662Z,19.25
2023-05-15T09:41:31.864Z,19.00
2023-05-15T09:44:27.417Z,18.75
2023-05-15T09:47:19.196Z,18.50
2023-05-15T09:50:09.872Z,18.94
2023-05-15T09:53:00.082Z,19.25
2023-05-15T09:55:49.346Z,19.56
2023-05-15T09:58:39.032Z,19.56
2023-05-15T10:01:27.974Z,18.63
2023-05-15T10:04:17.458Z,18.56
2023-05-15T10:07:09.941Z,18.06
2023-05-15T10:09:58.771Z,17.81
2023-05-15T10:12:48.641Z,18.25
2023-05-15T10:15:38.874Z,18.75
2023-05-15T10:18:30.747Z,19.38
2023-05-15T10:21:23.174Z,19.06
2023-05-15T10:24:12.798Z,19.19
2023-05-15T10:27:06.661Z,18.88
2023-05-15T10:29:57.368Z,18.44
2023-05-15T10:32:46.181Z,18.38
2023-05-15T10:35:36.332Z,18.31
2023-05-15T10:38:26.215Z,17.69
2023-05-15T10:41:18.288Z,17.38
2023-05-15T10:44:07.249Z,17.13
2023-05-15T10:46:56.259Z,16.88
2023-05-15T10:49:46.516Z,15.50
2023-05-15T10:52:39.354Z,13.69
2023-05-15T10:55:27.456Z,13.31
2023-05-15T10:58:15.634Z,13.94
2023-05-15T11:01:03.516Z,14.56
2023-05-15T11:03:53.235Z,15.44
2023-05-15T11:06:47.511Z,15.06
2023-05-15T11:09:39.371Z,15.38
2023-05-15T11:12:59.727Z,16.00
2023-05-15T11:15:49.105Z,16.31
2023-05-15T11:18:38.086Z,16.56
2023-05-15T11:21:32.779Z,17.00
2023-05-15T11:24:21.133Z,17.63
2023-05-15T11:27:13.428Z,17.63
2023-05-15T11:30:23.081Z,17.69
2023-05-15T11:33:12.418Z,17.94
2023-05-15T11:36:01.537Z,17.75
2023-05-15T11:38:51.145Z,17.63
2023-05-15T11:41:41.675Z,17.25
2023-05-15T11:44:30.160Z,16.88
2023-05-15T11:47:19.460Z,16.63
2023-05-15T11:50:11.061Z,16.56
2023-05-15T11:53:08.017Z,16.31
2023-05-15T11:55:57.057Z,16.31
2023-05-15T11:58:52.035Z,16.25
2023-05-15T12:01:47.880Z,16.13
2023-05-15T12:04:35.939Z,16.13
2023-05-15T12:07:24.032Z,16.13
2023-05-15T12:10:13.838Z,16.06
2023-05-15T12:13:02.256Z,16.00
2023-05-15T12:15:50.367Z,16.13
2023-05-15T12:18:38.792Z,16.06
2023-05-15T12:21:28.353Z,16.19
2023-05-15T12:24:21.478Z,16.00
2023-05-15T12:27:10.284Z,16.00
2023-05-15T12:29:58.711Z,16.13
2023-05-15T12:32:49.038Z,16.50
2023-05-15T12:35:43.821Z,16.69
2023-05-15T12:38:34.116Z,16.75
2023-05-15T12:41:22.612Z,16.94
2023-05-15T12:44:18.152Z,16.69
2023-05-15T12:47:07.830Z,16.50
2023-05-15T12:50:00.226Z,16.06
2023-05-15T12:52:56.343Z,15.75
2023-05-15T12:55:47.192Z,15.56
2023-05-15T12:58:38.448Z,15.38
2023-05-15T13:01:27.142Z,15.50
2023-05-15T13:04:17.197Z,15.75
2023-05-15T13:07:07.578Z,15.88
2023-05-15T13:10:09.834Z,15.88
2023-05-15T13:12:59.847Z,15.88
2023-05-15T13:15:50.929Z,15.38
2023-05-15T13:18:39.129Z,14.69
2023-05-15T13:21:27.483Z,14.63
2023-05-15T13:24:16.578Z,14.38
2023-05-15T13:27:07.151Z,14.56
2023-05-15T13:29:54.910Z,14.69
2023-05-15T13:32:43.470Z,14.81
2023-05-15T13:35:31.473Z,14.81
2023-05-15T13:38:19.190Z,14.63
2023-05-15T13:41:09.218Z,14.44
2023-05-15T13:43:57.112Z,13.75
2023-05-15T13:46:47.548Z,13.50
2023-05-15T13:49:35.980Z,13.69
2023-05-15T13:52:24.580Z,13.63
2023-05-15T13:55:13.023Z,14.13
2023-05-15T13:58:02.752Z,14.13
2023-05-15T14:00:51.257Z,14.56
2023-05-15T14:03:39.723Z,14.50
2023-05-15T14:06:28.162Z,14.00
2023-05-15T14:09:16.293Z,14.06
2023-05-15T14:12:05.785Z,13.75
2023-05-15T14:14:53.931Z,13.50
2023-05-15T14:17:43.435Z,13.63
2023-05-15T14:20:31.649Z,13.50
2023-05-15T14:23:19.844Z,12.81
2023-05-15T14:26:08.229Z,12.88
2023-05-15T14:28:56.467Z,12.88
2023-05-15T14:31:44.659Z,12.88
2023-05-15T14:34:32.552Z,12.69
2023-05-15T14:37:21.307Z,12.63
2023-05-15T14:40:11.190Z,12.63
2023-05-15T14:42:59.053Z,12.75
2023-05-15T14:45:49.302Z,12.94
2023-05-15T14:48:37.077Z,12.94
2023-05-15T14:51:25.404Z,13.00
2023-05-15T14:54:16.153Z,13.00
2023-05-15T14:57:04.401Z,13.13
2023-05-15T14:59:52.426Z,13.13
2023-05-15T15:02:40.527Z,13.19
2023-05-15T15:05:28.563Z,13.00
2023-05-15T15:08:17.713Z,12.94
2023-05-15T15:11:07.027Z,12.81
2023-05-15T15:13:56.222Z,12.69
2023-05-15T15:16:46.121Z,12.75
2023-05-15T15:19:34.337Z,12.56
2023-05-15T15:22:22.709Z,12.56
2023-05-15T15:25:11.686Z,12.44
2023-05-15T15:27:59.634Z,12.50
2023-05-15T15:30:47.619Z,12.50
2023-05-15T15:33:36.201Z,12.50
2023-05-15T15:36:25.474Z,12.44
2023-05-15T15:39:13.849Z,12.31
2023-05-15T15:42:03.386Z,12.31
2023-05-15T15:44:52.428Z,12.19
2023-05-15T15:47:40.603Z,12.13
2023-05-15T15:50:28.923Z,12.00
2023-05-15T15:53:17.096Z,12.00
2023-05-15T15:56:06.688Z,11.94
2023-05-15T15:58:55.457Z,11.88
2023-05-15T16:01:43.642Z,11.88
2023-05-15T16:04:32.018Z,11.88
2023-05-15T16:07:20.331Z,11.81
2023-05-15T16:10:13.190Z,11.88
2023-05-15T16:13:01.741Z,11.81
2023-05-15T16:15:51.290Z,11.88
2023-05-15T16:18:39.623Z,11.88
2023-05-15T16:21:27.904Z,11.88
2023-05-15T16:24:16.336Z,11.88
2023-05-15T16:27:05.664Z,11.81
2023-05-15T16:29:53.827Z,11.81
2023-05-15T16:32:42.091Z,11.75
2023-05-15T16:35:30.271Z,11.75
2023-05-15T16:38:19.102Z,11.69
2023-05-15T16:41:07.641Z,11.75
2023-05-15T16:43:55.631Z,11.75
2023-05-15T16:46:44.865Z,11.75
2023-05-15T16:49:33.727Z,11.75
2023-05-15T16:52:21.616Z,11.56
2023-05-15T16:55:10.369Z,11.44
2023-05-15T16:58:00.964Z,11.38
2023-05-15T17:00:49.057Z,11.38
2023-05-15T17:03:37.477Z,11.44
2023-05-15T17:06:25.941Z,11.38
2023-05-15T17:09:14.196Z,11.44
2023-05-15T17:12:04.968Z,11.50
2023-05-15T17:14:54.368Z,11.50
2023-05-15T17:17:42.686Z,11.44
2023-05-15T17:20:31.704Z,11.44
2023-05-15T17:23:21.071Z,11.50
2023-05-15T17:26:11.489Z,11.56
2023-05-15T17:28:59.780Z,11.50
2023-05-15T17:31:51.354Z,11.50
2023-05-15T17:34:40.321Z,11.56
2023-05-15T17:37:31.564Z,11.50
2023-05-15T17:40:20.896Z,11.44
2023-05-15T17:43:10.341Z,11.56
2023-05-15T17:46:00.560Z,11.56
2023-05-15T17:48:49.195Z,11.63
2023-05-15T17:51:39.984Z,11.56
2023-05-15T17:54:28.078Z,11.44
2023-05-15T17:57:16.202Z,11.44
2023-05-15T18:00:07.363Z,11.44
2023-05-15T18:03:01.350Z,11.38
2023-05-15T18:05:49.668Z,11.44
2023-05-15T18:08:44.470Z,11.44
2023-05-15T18:11:35.264Z,11.50
2023-05-15T18:14:23.443Z,11.50
2023-05-15T18:17:12.073Z,11.50
2023-05-15T18:20:05.819Z,11.50
2023-05-15T18:22:53.723Z,11.50
2023-05-15T18:25:42.168Z,11.50
2023-05-15T18:28:31.110Z,11.50
2023-05-15T18:31:20.209Z,11.56
2023-05-15T18:34:08.313Z,11.63
2023-05-15T18:36:56.237Z,11.50
2023-05-15T18:39:44.381Z,11.44
2023-05-15T18:42:32.821Z,11.44
2023-05-15T18:45:22.516Z,11.50
2023-05-15T18:48:10.649Z,11.56
2023-05-15T18:50:58.652Z,11.38
2023-05-15T18:53:46.946Z,11.44
2023-05-15T18:56:37.651Z,11.44
2023-05-15T18:59:31.219Z,11.50
2023-05-15T19:02:19.716Z,11.50
2023-05-15T19:05:09.546Z,11.56
2023-05-15T19:07:58.031Z,11.50
2023-05-15T19:10:49.248Z,11.56
2023-05-15T19:13:36.998Z,11.56
2023-05-15T19:16:28.813Z,11.56
2023-05-15T19:19:18.144Z,11.63
2023-05-15T19:22:06.424Z,11.63
2023-05-15T19:24:54.457Z,11.63
2023-05-15T19:27:43.307Z,11.63
2023-05-15T19:30:32.347Z,11.63
2023-05-15T19:33:21.093Z,11.56
2023-05-15T19:36:10.333Z,11.56
2023-05-15T19:39:00.602Z,11.69
2023-05-15T19:41:48.925Z,11.63
2023-05-15T19:44:38.243Z,11.63
2023-05-15T19:47:27.530Z,11.56
2023-05-15T19:50:17.550Z,11.56
2023-05-15T19:53:06.701Z,11.63
2023-05-15T19:55:54.368Z,11.63
2023-05-15T19:58:42.684Z,11.69
2023-05-15T20:01:31.078Z,11.63
2023-05-15T20:04:21.054Z,11.63
2023-05-15T20:07:09.797Z,11.63
2023-05-15T20:09:57.594Z,11.56
2023-05-15T20:12:47.444Z,11.63
2023-05-15T20:15:36.044Z,11.63
2023-05-15T20:18:32.198Z,11.63
2023-05-15T20:21:22.276Z,11.56
2023-05-15T20:24:10.459Z,11.63
2023-05-15T20:26:58.717Z,11.69
2023-05-15T20:29:47.276Z,11.75
2023-05-15T20:32:36.396Z,11.75
2023-05-15T20:35:27.603Z,11.81
2023-05-15T20:38:17.658Z,11.81
2023-05-15T20:41:05.850Z,11.88
2023-05-15T20:43:53.669Z,11.81
2023-05-15T20:46:43.706Z,11.94
2023-05-15T20:49:32.242Z,12.00
2023-05-15T20:52:20.989Z,12.06
2023-05-15T20:55:19.679Z,12.00
2023-05-15T20:58:07.894Z,11.81
2023-05-15T21:00:56.065Z,11.88
2023-05-15T21:03:45.002Z,11.81
2023-05-15T21:06:33.458Z,11.88
2023-05-15T21:09:21.706Z,11.88
2023-05-15T21:12:09.852Z,11.88
2023-05-15T21:14:59.109Z,11.94
2023-05-15T21:17:47.582Z,11.88
2023-05-15T21:20:35.934Z,12.00
2023-05-15T21:23:23.811Z,12.13
2023-05-15T21:26:12.661Z,12.13
2023-05-15T21:29:01.069Z,12.19
2023-05-15T21:31:52.204Z,12.25
2023-05-15T21:34:40.356Z,12.19
2023-05-15T21:37:28.819Z,12.19
2023-05-15T21:40:18.368Z,12.19
2023-05-15T21:43:06.450Z,12.13
2023-05-15T21:45:56.159Z,12.13
2023-05-15T21:48:45.640Z,12.13
2023-05-15T21:51:34.666Z,12.13
2023-05-15T21:54:23.358Z,12.06
2023-05-15T21:57:13.256Z,12.00
2023-05-15T22:00:01.446Z,12.00
2023-05-15T22:02:50.961Z,12.00
2023-05-15T22:05:38.949Z,11.94
2023-05-15T22:08:27.172Z,11.94
2023-05-15T22:11:17.293Z,11.88
2023-05-15T22:14:06.483Z,11.88
2023-05-15T22:17:06.831Z,11.88
2023-05-15T22:19:56.239Z,11.94
2023-05-15T22:22:43.988Z,11.94
2023-05-15T22:25:32.363Z,11.94
2023-05-15T22:28:21.390Z,11.94
2023-05-15T22:31:09.787Z,11.94
2023-05-15T22:33:58.006Z,11.94
2023-05-15T22:36:46.889Z,11.94
2023-05-15T22:39:36.576Z,11.94
2023-05-15T22:42:25.018Z,12.00
2023-05-15T22:45:13.073Z,12.06
2023-05-15T22:48:02.180Z,12.13
2023-05-15T22:50:52.587Z,12.13
2023-05-15T22:53:41.506Z,12.06
2023-05-15T22:56:29.557Z,12.00
2023-05-15T22:59:18.110Z,12.00
2023-05-15T23:02:06.420Z,12.00
2023-05-15T23:04:54.214Z,12.00
2023-05-15T23:07:42.329Z,12.00
2023-05-15T23:10:32.794Z,12.00
2023-05-15T23:13:20.759Z,12.00
2023-05-15T23:16:10.094Z,12.00
2023-05-15T23:18:58.250Z,12.06
2023-05-15T23:21:46.749Z,12.00
2023-05-15T23:24:34.934Z,12.00
2023-05-15T23:27:23.054Z,12.00
2023-05-15T23:30:11.597Z,12.06
2023-05-15T23:32:59.919Z,12.06
2023-05-15T23:35:48.354Z,12.06
2023-05-15T23:38:36.270Z,12.06
2023-05-15T23:41:24.243Z,12.06
2023-05-15T23:44:12.809Z,12.06
2023-05-15T23:47:01.238Z,12.00
2023-05-15T23:49:49.487Z,12.00
2023-05-15T23:52:37.623Z,12.00
2023-05-15T23:55:25.647Z,12.06
2023-05-15T23:58:13.886Z,12.13
